»·PEaware :: ACA130 KSEA-KBOI

ACA130 :: KSEA-KBOI

FLIGHT INFORMATION

Flight Status: Arrived
Operator:
Air Canada
More flights by this operator :: More flights under this callsign
Pilot: Peter M. (9586)
Aircraft: Unknown
(DHD8)
More flights by this aircraft type
Origin: KSEA Seattle-Tacoma Intl
United States
Destination: KBOI Boise Air Terminal/Gowen
United States
More flights between these airports :: More routes between these airports
Route: +MOUNT9 YKM V4 BOI / DEVLE KYAAN3
File this flight plan on PilotEdge
Remarks:
Altitude:
(Current/Filed)
23,000ft
Speed:
(Current/Filed)
220kts
Departed: 03-Oct-18 07:13 PM
Arrived: 03-Oct-18 08:17 PM
Distance/Time
Traveled:
346nm/1:04
Distance/Time
To Go:
Arrived

Flight Plot

Page will automatically refresh every two minutes.

Flight plan parsing failed; only flown route is shown


Map Options




Map Legend


Flown Route
Filed Route
Departure Airport
Arrival Airport
Navaid (VOR, NDB)
Fix

Horizontal Profiles

Position Reports

Time Latitude Longitude Heading Altitude Ground
Speed
03-Oct-18 18:47 47.442633 -122.303675 144 440ft 0kts
03-Oct-18 18:48 47.442633 -122.303675 144 440ft 0kts
03-Oct-18 18:49 47.442633 -122.303675 144 440ft 0kts
03-Oct-18 18:50 47.442633 -122.303675 144 440ft 0kts
03-Oct-18 18:51 47.442633 -122.303675 144 440ft 0kts
03-Oct-18 18:52 47.442633 -122.303675 144 440ft 0kts
03-Oct-18 18:53 47.442633 -122.303675 144 440ft 0kts
03-Oct-18 18:54 47.442633 -122.303675 144 440ft 0kts
03-Oct-18 18:55 47.442633 -122.303675 144 440ft 0kts
03-Oct-18 18:56 47.442633 -122.303675 144 440ft 0kts
03-Oct-18 18:57 47.442633 -122.303675 144 440ft 0kts
03-Oct-18 18:58 47.442633 -122.303675 144 440ft 0kts
03-Oct-18 18:59 47.442633 -122.303675 144 440ft 0kts
03-Oct-18 19:00 47.442633 -122.303675 144 440ft 0kts
03-Oct-18 19:01 47.442633 -122.303675 144 440ft 0kts
03-Oct-18 19:02 47.442633 -122.303675 144 440ft 0kts
03-Oct-18 19:03 47.442633 -122.303675 144 440ft 0kts
03-Oct-18 19:04 47.442633 -122.303675 144 440ft 0kts
03-Oct-18 19:05 47.442633 -122.303675 144 440ft 0kts
03-Oct-18 19:06 47.443160 -122.304222 145 440ft 1kts
03-Oct-18 19:07 47.442751 -122.305364 256 440ft 14kts
03-Oct-18 19:08 47.439017 -122.306175 180 440ft 3kts
03-Oct-18 19:09 47.437844 -122.306934 266 440ft 0kts
03-Oct-18 19:10 47.437896 -122.309837 273 440ft 0kts
03-Oct-18 19:11 47.437894 -122.309784 273 440ft 0kts
03-Oct-18 19:12 47.437889 -122.309672 273 440ft 0kts
03-Oct-18 19:13 47.437902 -122.309969 273 440ft 0kts
03-Oct-18 19:14 47.438099 -122.311183 335 440ft 10kts
03-Oct-18 19:15 47.464946 -122.313096 353 995ft 174kts
03-Oct-18 19:16 47.519957 -122.315296 357 3289ft 208kts
03-Oct-18 19:17 47.579329 -122.312352 24 5780ft 222kts
03-Oct-18 19:18 47.598998 -122.230035 87 8358ft 225kts
03-Oct-18 19:19 47.602277 -122.137702 87 10815ft 228kts
03-Oct-18 19:20 47.593010 -122.045875 133 13096ft 229kts
03-Oct-18 19:21 47.548056 -121.973124 138 15132ft 252kts
03-Oct-18 19:22 47.501109 -121.896336 139 17705ft 251kts
03-Oct-18 19:23 47.452657 -121.817599 142 20150ft 257kts
03-Oct-18 19:24 47.402584 -121.737404 141 22592ft 263kts
03-Oct-18 19:25 47.345916 -121.648438 140 23009ft 327kts
03-Oct-18 19:26 47.279697 -121.544578 139 23006ft 364kts
03-Oct-18 19:27 47.210038 -121.434987 139 22999ft 366kts
03-Oct-18 19:28 47.140593 -121.325838 139 23000ft 363kts
03-Oct-18 19:29 47.071117 -121.217143 139 23003ft 363kts
03-Oct-18 19:30 47.001624 -121.108835 139 23006ft 364kts
03-Oct-18 19:31 46.931295 -120.999633 139 23011ft 365kts
03-Oct-18 19:32 46.861654 -120.891583 139 23018ft 363kts
03-Oct-18 19:33 46.792296 -120.784484 139 23018ft 364kts
03-Oct-18 19:34 46.721668 -120.676087 139 23021ft 365kts
03-Oct-18 19:35 46.651050 -120.568034 139 23024ft 365kts
03-Oct-18 19:36 46.580224 -120.459989 138 23026ft 366kts
03-Oct-18 19:37 46.508758 -120.352112 139 23026ft 366kts
03-Oct-18 19:38 46.425483 -120.225868 138 23024ft 366kts
03-Oct-18 19:39 46.284134 -120.012492 138 23018ft 367kts
03-Oct-18 19:40 46.143197 -119.800943 139 23013ft 366kts
03-Oct-18 19:41 46.002163 -119.591993 139 23008ft 363kts
03-Oct-18 19:42 45.859090 -119.381187 139 23001ft 374kts
03-Oct-18 19:43 45.715140 -119.170646 139 22997ft 363kts
03-Oct-18 19:44 45.607815 -119.014853 139 22992ft 358kts
03-Oct-18 19:45 45.537583 -118.913354 139 22990ft 357kts
03-Oct-18 19:46 45.465162 -118.817226 142 22983ft 356kts
03-Oct-18 19:47 45.391599 -118.722424 142 22984ft 356kts
03-Oct-18 19:48 45.318392 -118.628646 142 22984ft 356kts
03-Oct-18 19:49 45.244984 -118.534796 142 22982ft 355kts
03-Oct-18 19:50 45.171634 -118.441514 142 22980ft 355kts
03-Oct-18 19:51 45.110582 -118.364073 142 22970ft 355kts
03-Oct-18 19:52 45.024691 -118.255547 142 22964ft 355kts
03-Oct-18 19:53 44.918064 -118.121431 142 22959ft 354kts
03-Oct-18 19:54 44.795038 -117.967541 142 22953ft 353kts
03-Oct-18 19:55 44.643451 -117.779021 142 22951ft 352kts
03-Oct-18 19:56 44.581820 -117.702689 142 22950ft 352kts
03-Oct-18 19:57 44.508610 -117.612243 142 22948ft 351kts
03-Oct-18 19:58 44.434405 -117.521028 142 22944ft 351kts
03-Oct-18 19:59 44.361131 -117.430919 142 22939ft 351kts
03-Oct-18 20:00 44.287724 -117.341161 142 22933ft 351kts
03-Oct-18 20:01 44.213991 -117.251339 142 22926ft 351kts
03-Oct-18 20:02 44.138925 -117.165785 138 22921ft 353kts
03-Oct-18 20:03 44.070247 -117.070568 139 22915ft 344kts
03-Oct-18 20:04 44.003370 -116.978372 139 22914ft 332kts
03-Oct-18 20:05 43.946851 -116.887964 127 22392ft 290kts
03-Oct-18 20:06 43.903786 -116.796334 129 19768ft 278kts
03-Oct-18 20:07 43.861704 -116.710423 129 17250ft 266kts
03-Oct-18 20:08 43.821190 -116.627652 129 14800ft 254kts
03-Oct-18 20:09 43.796169 -116.577286 129 13331ft 248kts
03-Oct-18 20:10 43.763718 -116.511919 129 11375ft 239kts
03-Oct-18 20:11 43.730571 -116.446546 126 9458ft 229kts
03-Oct-18 20:12 43.696509 -116.378431 124 7915ft 184kts
03-Oct-18 20:13 43.671359 -116.318947 114 7958ft 213kts
03-Oct-18 20:14 43.645067 -116.239671 110 7839ft 228kts
03-Oct-18 20:15 43.629977 -116.166638 112 7224ft 177kts
03-Oct-18 20:16 43.598199 -116.124633 180 5420ft 167kts
03-Oct-18 20:17 43.557624 -116.149495 224 4882ft 159kts
03-Oct-18 20:18 43.559234 -116.204504 294 2908ft 155kts
03-Oct-18 20:19 43.566175 -116.223308 1 2878ft 1kts

Navigation Log

Ident Type
Flight plan parsing failed, navigation log unavailable